createdAt,value
2018-09-22T00:00:21.144Z,99.90
2018-09-22T00:02:49.562Z,99.90
2018-09-22T00:05:18.069Z,99.90
2018-09-22T00:07:46.466Z,99.90
2018-09-22T00:10:14.881Z,99.90
2018-09-22T00:12:43.358Z,99.90
2018-09-22T00:15:11.792Z,99.90
2018-09-22T00:17:40.228Z,99.90
2018-09-22T00:20:08.709Z,99.90
2018-09-22T00:22:37.090Z,99.90
2018-09-22T00:25:05.527Z,99.90
2018-09-22T00:27:33.993Z,99.90
2018-09-22T00:30:02.406Z,99.90
2018-09-22T00:32:30.831Z,99.90
2018-09-22T00:34:59.301Z,99.90
2018-09-22T00:37:27.724Z,99.90
2018-09-22T00:39:56.130Z,99.90
2018-09-22T00:42:24.601Z,99.90
2018-09-22T00:44:52.985Z,99.90
2018-09-22T00:47:21.369Z,99.90
2018-09-22T00:49:49.914Z,99.90
2018-09-22T00:52:18.337Z,99.90
2018-09-22T00:54:46.920Z,99.90
2018-09-22T00:57:15.401Z,99.90
2018-09-22T00:59:43.800Z,99.90
2018-09-22T01:02:12.248Z,99.90
2018-09-22T01:04:40.826Z,99.90
2018-09-22T01:07:09.354Z,99.90
2018-09-22T01:09:37.846Z,99.90
2018-09-22T01:12:06.335Z,99.90
2018-09-22T01:14:34.733Z,99.90
2018-09-22T01:17:03.469Z,99.90
2018-09-22T01:19:31.893Z,99.90
2018-09-22T01:22:00.285Z,99.90
2018-09-22T01:24:28.661Z,99.90
2018-09-22T01:26:57.117Z,99.90
2018-09-22T01:29:25.585Z,99.90
2018-09-22T01:31:53.980Z,99.90
2018-09-22T01:34:22.989Z,99.90
2018-09-22T01:36:51.405Z,99.90
2018-09-22T01:39:19.825Z,99.90
2018-09-22T01:41:48.321Z,99.90
2018-09-22T01:44:16.741Z,99.90
2018-09-22T01:46:45.123Z,99.90
2018-09-22T01:49:13.693Z,99.90
2018-09-22T01:51:42.065Z,99.90
2018-09-22T01:54:10.488Z,99.90
2018-09-22T01:56:38.917Z,99.90
2018-09-22T01:59:07.415Z,99.90
2018-09-22T02:01:35.828Z,99.90
2018-09-22T02:04:04.277Z,99.90
2018-09-22T02:06:32.660Z,99.90
2018-09-22T02:09:01.060Z,99.90
2018-09-22T02:11:29.701Z,99.90
2018-09-22T02:13:58.148Z,99.90
2018-09-22T02:16:26.704Z,99.90
2018-09-22T02:18:55.185Z,99.90
2018-09-22T02:21:23.812Z,99.90
2018-09-22T02:23:52.221Z,99.90
2018-09-22T02:26:21.635Z,99.90
2018-09-22T02:28:50.029Z,99.90
2018-09-22T02:31:18.409Z,99.90
2018-09-22T02:33:46.902Z,99.90
2018-09-22T02:36:15.293Z,99.90
2018-09-22T02:38:43.713Z,99.90
2018-09-22T02:41:12.193Z,99.90
2018-09-22T02:43:40.585Z,99.90
2018-09-22T02:46:09.014Z,99.90
2018-09-22T02:48:37.471Z,99.90
2018-09-22T02:51:06.555Z,99.90
2018-09-22T02:53:35.026Z,99.90
2018-09-22T02:56:03.490Z,99.90
2018-09-22T02:58:31.954Z,99.90
2018-09-22T03:01:00.349Z,99.90
2018-09-22T03:03:28.777Z,99.90
2018-09-22T03:05:57.141Z,99.90
2018-09-22T03:08:25.570Z,99.90
2018-09-22T03:10:54.519Z,99.90
2018-09-22T03:13:22.969Z,99.90
2018-09-22T03:15:51.418Z,99.90
2018-09-22T03:18:19.928Z,99.90
2018-09-22T03:20:48.439Z,99.90
2018-09-22T03:23:16.931Z,99.90
2018-09-22T03:25:45.414Z,99.90
2018-09-22T03:28:13.851Z,99.90
2018-09-22T03:30:42.260Z,99.90
2018-09-22T03:33:10.766Z,99.90
2018-09-22T03:35:39.214Z,99.90
2018-09-22T03:38:07.757Z,99.90
2018-09-22T03:40:36.233Z,99.90
2018-09-22T03:43:04.652Z,99.90
2018-09-22T03:45:33.087Z,99.90
2018-09-22T03:48:01.746Z,99.90
2018-09-22T03:50:30.146Z,99.90
2018-09-22T03:52:58.649Z,99.90
2018-09-22T03:55:27.221Z,99.90
2018-09-22T03:57:55.665Z,99.90
2018-09-22T04:00:24.064Z,99.90
2018-09-22T04:02:52.605Z,99.90
2018-09-22T04:05:21.039Z,99.90
2018-09-22T04:07:49.471Z,99.90
2018-09-22T04:10:17.912Z,99.90
2018-09-22T04:12:46.302Z,99.90
2018-09-22T04:15:14.733Z,99.90
2018-09-22T04:17:43.398Z,99.90
2018-09-22T04:20:11.800Z,99.90
2018-09-22T04:22:40.676Z,99.90
2018-09-22T04:25:09.181Z,99.90
2018-09-22T04:27:37.601Z,99.90
2018-09-22T04:30:05.995Z,99.90
2018-09-22T04:32:34.428Z,99.90
2018-09-22T04:35:02.807Z,99.90
2018-09-22T04:37:31.177Z,99.90
2018-09-22T04:39:59.643Z,99.90
2018-09-22T04:42:28.037Z,99.90
2018-09-22T04:44:56.659Z,99.90
2018-09-22T04:47:25.893Z,99.90
2018-09-22T04:49:54.379Z,99.90
2018-09-22T04:52:22.785Z,99.90
2018-09-22T04:54:51.250Z,99.90
2018-09-22T04:57:19.682Z,99.90
2018-09-22T04:59:48.165Z,99.90
2018-09-22T05:02:16.649Z,99.90
2018-09-22T05:04:45.038Z,99.90
2018-09-22T05:07:13.435Z,99.90
2018-09-22T05:09:41.861Z,99.90
2018-09-22T05:12:10.891Z,99.90
2018-09-22T05:14:39.278Z,99.90
2018-09-22T05:17:07.734Z,99.90
2018-09-22T05:19:36.112Z,99.90
2018-09-22T05:22:04.541Z,99.90
2018-09-22T05:24:33.077Z,99.90
2018-09-22T05:27:01.536Z,99.90
2018-09-22T05:29:30.062Z,99.90
2018-09-22T05:31:58.517Z,99.90
2018-09-22T05:34:26.914Z,99.90
2018-09-22T05:36:55.319Z,99.90
2018-09-22T05:39:23.754Z,99.90
2018-09-22T05:41:52.310Z,99.90
2018-09-22T05:44:20.737Z,99.90
2018-09-22T05:46:49.197Z,99.90
2018-09-22T05:49:17.605Z,99.90
2018-09-22T05:51:46.001Z,99.90
2018-09-22T05:54:14.634Z,99.90
2018-09-22T05:56:43.102Z,99.90
2018-09-22T05:59:11.764Z,99.90
2018-09-22T06:01:40.204Z,99.90
2018-09-22T06:04:08.584Z,99.90
2018-09-22T06:06:37.001Z,99.90
2018-09-22T06:09:07.630Z,99.90
2018-09-22T06:11:36.290Z,99.90
2018-09-22T06:14:04.684Z,99.90
2018-09-22T06:16:33.200Z,99.90
2018-09-22T06:19:01.596Z,99.90
2018-09-22T06:21:30.857Z,99.90
2018-09-22T06:23:59.298Z,99.90
2018-09-22T06:26:27.683Z,99.90
2018-09-22T06:28:56.306Z,99.90
2018-09-22T06:31:24.729Z,99.90
2018-09-22T06:33:53.161Z,99.90
2018-09-22T06:36:21.569Z,99.90
2018-09-22T06:38:50.028Z,99.90
2018-09-22T06:41:18.478Z,99.90
2018-09-22T06:43:46.892Z,99.90
2018-09-22T06:46:15.438Z,99.90
2018-09-22T06:48:43.789Z,99.90
2018-09-22T06:51:12.444Z,99.90
2018-09-22T06:53:40.904Z,99.90
2018-09-22T06:56:09.345Z,99.90
2018-09-22T06:58:37.721Z,99.90
2018-09-22T07:01:06.234Z,99.90
2018-09-22T07:03:34.653Z,99.90
2018-09-22T07:06:03.031Z,99.90
2018-09-22T07:08:31.486Z,99.90
2018-09-22T07:10:59.882Z,99.90
2018-09-22T07:13:28.305Z,99.90
2018-09-22T07:15:56.726Z,99.90
2018-09-22T07:18:25.118Z,99.90
2018-09-22T07:20:58.920Z,99.90
2018-09-22T07:23:27.279Z,99.90
2018-09-22T07:25:55.694Z,99.90
2018-09-22T07:28:24.166Z,99.90
2018-09-22T07:30:52.637Z,99.90
2018-09-22T07:33:21.077Z,99.90
2018-09-22T07:35:49.565Z,99.90
2018-09-22T07:38:18.017Z,99.90
2018-09-22T07:40:46.392Z,99.90
2018-09-22T07:43:14.817Z,99.90
2018-09-22T07:45:43.346Z,99.90
2018-09-22T07:48:11.725Z,99.90
2018-09-22T07:50:40.153Z,99.90
2018-09-22T07:53:08.513Z,99.90
2018-09-22T07:55:36.865Z,99.90
2018-09-22T07:58:05.349Z,99.90
2018-09-22T08:00:33.832Z,99.90
2018-09-22T08:03:02.676Z,99.90
2018-09-22T08:05:31.157Z,99.90
2018-09-22T08:07:59.626Z,99.90
2018-09-22T08:10:28.000Z,99.90
2018-09-22T08:12:56.454Z,99.90
2018-09-22T08:15:24.829Z,99.90
2018-09-22T08:17:53.197Z,99.90
2018-09-22T08:20:21.670Z,99.90
2018-09-22T08:22:50.097Z,99.90
2018-09-22T08:25:18.527Z,99.90
2018-09-22T08:27:46.937Z,99.90
2018-09-22T08:30:15.330Z,99.90
2018-09-22T08:32:43.741Z,99.90
2018-09-22T08:35:12.198Z,99.90
2018-09-22T08:37:40.737Z,99.90
2018-09-22T08:40:09.197Z,99.90
2018-09-22T08:42:37.832Z,99.90
2018-09-22T08:45:06.794Z,99.90
2018-09-22T08:47:35.801Z,99.90
2018-09-22T08:50:04.540Z,99.90
2018-09-22T08:52:33.511Z,99.90
2018-09-22T08:55:02.137Z,99.90
2018-09-22T08:57:30.651Z,99.90
2018-09-22T08:59:59.841Z,99.90
2018-09-22T09:02:28.412Z,99.90
2018-09-22T09:04:57.017Z,99.90
2018-09-22T09:07:25.439Z,99.90
2018-09-22T09:09:53.926Z,99.90
2018-09-22T09:12:22.381Z,99.90
2018-09-22T09:14:50.791Z,99.90
2018-09-22T09:17:19.470Z,99.90
2018-09-22T09:19:47.925Z,99.90
2018-09-22T09:22:16.345Z,99.90
2018-09-22T09:24:44.791Z,99.90
2018-09-22T09:27:13.429Z,99.90
2018-09-22T09:29:41.920Z,99.90
2018-09-22T09:32:10.366Z,99.90
2018-09-22T09:34:39.003Z,99.90
2018-09-22T09:37:07.475Z,99.90
2018-09-22T09:39:35.955Z,99.90
2018-09-22T09:42:04.435Z,99.70
2018-09-22T09:44:32.864Z,99.60
2018-09-22T09:47:01.376Z,99.50
2018-09-22T09:49:29.808Z,99.90
2018-09-22T09:51:58.265Z,99.10
2018-09-22T09:54:26.704Z,99.10
2018-09-22T09:56:55.227Z,98.90
2018-09-22T09:59:23.589Z,99.30
2018-09-22T10:01:51.961Z,99.40
2018-09-22T10:04:20.404Z,99.90
2018-09-22T10:06:48.841Z,99.90
2018-09-22T10:09:17.229Z,99.90
2018-09-22T10:11:45.810Z,99.90
2018-09-22T10:14:14.229Z,99.90
2018-09-22T10:16:42.666Z,99.90
2018-09-22T10:19:11.086Z,99.90
2018-09-22T10:21:39.505Z,99.90
2018-09-22T10:24:07.935Z,99.90
2018-09-22T10:26:36.333Z,99.90
2018-09-22T10:29:04.952Z,99.90
2018-09-22T10:31:33.969Z,99.90
2018-09-22T10:34:02.985Z,99.90
2018-09-22T10:36:31.514Z,99.90
2018-09-22T10:38:59.921Z,99.90
2018-09-22T10:41:28.401Z,99.90
2018-09-22T10:43:56.925Z,99.90
2018-09-22T10:46:25.813Z,99.90
2018-09-22T10:48:54.258Z,99.90
2018-09-22T10:51:22.667Z,99.90
2018-09-22T10:53:51.053Z,99.90
2018-09-22T10:56:19.533Z,99.90
2018-09-22T10:58:47.929Z,99.90
2018-09-22T11:01:16.317Z,99.50
2018-09-22T11:03:44.778Z,98.90
2018-09-22T11:06:13.171Z,97.90
2018-09-22T11:08:41.590Z,98.20
2018-09-22T11:11:10.404Z,97.80
2018-09-22T11:13:38.822Z,98.10
2018-09-22T11:16:07.366Z,96.40
2018-09-22T11:18:35.776Z,96.50
2018-09-22T11:21:04.285Z,97.00
2018-09-22T11:23:33.618Z,95.70
2018-09-22T11:26:02.085Z,94.90
2018-09-22T11:28:30.492Z,95.30
2018-09-22T11:30:58.918Z,95.80
2018-09-22T11:33:27.345Z,94.00
2018-09-22T11:35:55.740Z,94.20
2018-09-22T11:38:24.191Z,93.40
2018-09-22T11:40:52.654Z,92.60
2018-09-22T11:43:21.037Z,92.80
2018-09-22T11:45:50.262Z,93.80
2018-09-22T11:48:18.730Z,93.60
2018-09-22T11:50:47.109Z,94.10
2018-09-22T11:53:18.002Z,94.10
2018-09-22T11:55:46.425Z,94.30
2018-09-22T11:58:14.777Z,94.80
2018-09-22T12:00:43.209Z,95.50
2018-09-22T12:03:11.603Z,96.10
2018-09-22T12:05:46.623Z,96.30
2018-09-22T12:08:14.970Z,97.40
2018-09-22T12:10:43.340Z,97.10
2018-09-22T12:13:11.762Z,97.60
2018-09-22T12:15:41.142Z,97.70
2018-09-22T12:18:09.623Z,97.80
2018-09-22T12:20:38.069Z,98.20
2018-09-22T12:23:06.467Z,98.10
2018-09-22T12:25:34.861Z,97.40
2018-09-22T12:33:10.106Z,98.20
2018-09-22T12:35:38.499Z,99.00
2018-09-22T12:38:07.417Z,99.60
2018-09-22T12:40:35.890Z,99.90
2018-09-22T12:43:04.720Z,99.90
2018-09-22T12:45:33.101Z,99.90
2018-09-22T12:48:01.573Z,99.90
2018-09-22T12:50:29.978Z,99.90
2018-09-22T12:52:58.437Z,99.90
2018-09-22T12:55:26.921Z,99.90
2018-09-22T12:57:55.305Z,99.90
2018-09-22T13:00:23.693Z,99.90
2018-09-22T13:02:52.150Z,99.90
2018-09-22T13:05:20.514Z,99.90
2018-09-22T13:07:49.166Z,99.90
2018-09-22T13:10:17.621Z,99.90
2018-09-22T13:12:46.258Z,99.90
2018-09-22T13:15:14.645Z,99.90
2018-09-22T13:17:43.128Z,99.90
2018-09-22T13:20:11.617Z,99.90
2018-09-22T13:22:39.990Z,99.90
2018-09-22T13:25:08.446Z,99.90
2018-09-22T13:27:36.838Z,99.90
2018-09-22T13:30:05.702Z,99.90
2018-09-22T13:32:34.221Z,99.90
2018-09-22T13:35:02.597Z,99.90
2018-09-22T13:37:31.562Z,99.90
2018-09-22T13:39:59.981Z,99.90
2018-09-22T13:42:28.370Z,99.90
2018-09-22T13:44:56.737Z,99.90
2018-09-22T13:47:25.257Z,99.90
2018-09-22T13:49:53.656Z,99.90
2018-09-22T13:52:22.637Z,99.90
2018-09-22T13:54:51.111Z,99.90
2018-09-22T13:57:19.521Z,99.90
2018-09-22T13:59:47.885Z,99.90
2018-09-22T14:02:16.759Z,99.90
2018-09-22T14:04:45.176Z,99.90
2018-09-22T14:07:13.697Z,99.90
2018-09-22T14:09:42.202Z,99.90
2018-09-22T14:12:10.629Z,99.90
2018-09-22T14:14:39.545Z,99.90
2018-09-22T14:17:08.003Z,99.90
2018-09-22T14:19:36.460Z,99.90
2018-09-22T14:22:04.865Z,99.90
2018-09-22T14:24:33.370Z,99.90
2018-09-22T14:27:01.768Z,99.90
2018-09-22T14:29:30.274Z,99.90
2018-09-22T14:31:58.755Z,99.90
2018-09-22T14:34:27.181Z,99.90
2018-09-22T14:36:55.596Z,99.90
2018-09-22T14:39:24.012Z,99.90
2018-09-22T14:41:52.431Z,99.90
2018-09-22T14:44:20.843Z,99.90
2018-09-22T14:46:49.386Z,99.90
2018-09-22T14:49:17.834Z,99.90
2018-09-22T14:51:46.260Z,99.90
2018-09-22T14:54:14.700Z,99.90
2018-09-22T14:56:43.105Z,99.90
2018-09-22T14:59:11.514Z,99.90
2018-09-22T15:01:39.959Z,99.90
2018-09-22T15:04:08.392Z,99.90
2018-09-22T15:06:36.908Z,99.90
2018-09-22T15:09:07.434Z,99.90
2018-09-22T15:11:36.878Z,99.90
2018-09-22T15:14:05.277Z,99.90
2018-09-22T15:16:34.001Z,99.90
2018-09-22T15:19:02.376Z,99.90
2018-09-22T15:21:30.841Z,99.90
2018-09-22T15:23:59.286Z,99.90
2018-09-22T15:26:27.693Z,99.90
2018-09-22T15:28:56.141Z,99.90
2018-09-22T15:31:24.569Z,99.90
2018-09-22T15:33:52.945Z,99.90
2018-09-22T15:36:21.332Z,99.90
2018-09-22T15:38:49.873Z,99.90
2018-09-22T15:41:18.349Z,99.90
2018-09-22T15:43:46.750Z,99.90
2018-09-22T15:46:15.161Z,99.90
2018-09-22T15:48:43.549Z,99.90
2018-09-22T15:51:11.978Z,99.90
2018-09-22T15:53:40.440Z,99.90
2018-09-22T15:56:09.724Z,99.90
2018-09-22T15:58:38.122Z,99.90
2018-09-22T16:01:06.578Z,99.90
2018-09-22T16:03:35.074Z,99.90
2018-09-22T16:06:03.505Z,99.90
2018-09-22T16:08:32.399Z,99.90
2018-09-22T16:11:00.770Z,99.90
2018-09-22T16:13:29.397Z,99.90
2018-09-22T16:15:57.927Z,99.90
2018-09-22T16:18:26.343Z,99.90
2018-09-22T16:20:54.728Z,99.90
2018-09-22T16:23:23.891Z,99.90
2018-09-22T16:25:52.277Z,99.90
2018-09-22T16:28:20.673Z,99.90
2018-09-22T16:30:49.137Z,99.90
2018-09-22T16:33:17.529Z,99.90
2018-09-22T16:35:45.925Z,99.90
2018-09-22T16:38:14.352Z,99.90
2018-09-22T16:40:42.729Z,99.90
2018-09-22T16:43:11.256Z,99.90
2018-09-22T16:45:40.286Z,99.90
2018-09-22T16:48:08.670Z,99.90
2018-09-22T16:50:37.324Z,99.90
2018-09-22T16:53:05.596Z,99.90
2018-09-22T16:55:34.057Z,99.90
2018-09-22T16:58:02.522Z,99.90
2018-09-22T17:00:30.989Z,99.90
2018-09-22T17:02:59.543Z,99.90
2018-09-22T17:05:27.935Z,99.90
2018-09-22T17:07:56.382Z,99.90
2018-09-22T17:10:24.793Z,99.90
2018-09-22T17:12:53.174Z,99.90
2018-09-22T17:15:21.593Z,99.90
2018-09-22T17:17:50.010Z,99.90
2018-09-22T17:20:18.478Z,99.90
2018-09-22T17:22:46.987Z,99.90
2018-09-22T17:25:15.381Z,99.90
2018-09-22T17:27:43.830Z,99.90
2018-09-22T17:30:12.344Z,99.90
2018-09-22T17:32:40.972Z,99.90
2018-09-22T17:35:09.359Z,99.90
2018-09-22T17:37:38.151Z,99.90
2018-09-22T17:40:06.697Z,99.90
2018-09-22T17:42:35.062Z,99.90
2018-09-22T17:45:03.509Z,99.90
2018-09-22T17:47:31.929Z,99.90
2018-09-22T17:50:00.373Z,99.90
2018-09-22T17:52:28.801Z,99.90
2018-09-22T17:54:57.182Z,99.90
2018-09-22T17:57:25.600Z,99.90
2018-09-22T17:59:54.042Z,99.90
2018-09-22T18:02:22.421Z,99.90
2018-09-22T18:04:50.802Z,99.90
2018-09-22T18:07:19.352Z,99.90
2018-09-22T18:09:47.831Z,99.90
2018-09-22T18:12:16.330Z,99.90
2018-09-22T18:14:44.771Z,99.90
2018-09-22T18:17:13.123Z,99.90
2018-09-22T18:19:41.804Z,99.90
2018-09-22T18:22:10.252Z,99.90
2018-09-22T18:24:38.661Z,99.90
2018-09-22T18:27:07.094Z,99.90
2018-09-22T18:29:35.534Z,99.90
2018-09-22T18:32:03.905Z,99.90
2018-09-22T18:34:32.318Z,99.90
2018-09-22T18:37:00.840Z,99.90
2018-09-22T18:39:29.350Z,99.90
2018-09-22T18:41:57.736Z,99.90
2018-09-22T18:44:26.185Z,99.90
2018-09-22T18:46:54.574Z,99.90
2018-09-22T18:49:22.985Z,99.90
2018-09-22T18:51:51.501Z,99.90
2018-09-22T18:54:19.889Z,99.90
2018-09-22T18:56:48.291Z,99.90
2018-09-22T18:59:16.724Z,99.90
2018-09-22T19:01:45.118Z,99.90
2018-09-22T19:04:13.499Z,99.90
2018-09-22T19:06:42.477Z,99.90
2018-09-22T19:09:11.099Z,99.90
2018-09-22T19:11:39.834Z,99.90
2018-09-22T19:14:30.212Z,99.90
2018-09-22T19:17:04.322Z,99.90
2018-09-22T19:19:37.475Z,99.90
2018-09-22T19:22:07.490Z,99.90
2018-09-22T19:24:39.980Z,99.90
2018-09-22T19:27:14.727Z,99.90
2018-09-22T19:29:52.881Z,99.90
2018-09-22T19:32:26.677Z,99.90
2018-09-22T19:35:08.491Z,99.90
2018-09-22T19:37:46.147Z,99.90
2018-09-22T19:40:17.865Z,99.90
2018-09-22T19:42:56.659Z,99.90
2018-09-22T19:45:31.028Z,99.90
2018-09-22T19:49:03.822Z,99.90
2018-09-22T19:51:36.179Z,99.90
2018-09-22T19:54:05.222Z,99.90
2018-09-22T19:56:33.690Z,99.90
2018-09-22T19:59:02.204Z,99.90
2018-09-22T20:01:31.081Z,99.90
2018-09-22T20:03:59.494Z,99.90
2018-09-22T20:06:27.991Z,99.90
2018-09-22T20:08:56.401Z,99.90
2018-09-22T20:11:25.614Z,99.90
2018-09-22T20:13:54.046Z,99.90
2018-09-22T20:16:22.533Z,99.90
2018-09-22T20:18:51.108Z,99.90
2018-09-22T20:21:19.608Z,99.90
2018-09-22T20:23:50.906Z,99.90
2018-09-22T20:26:19.674Z,99.90
2018-09-22T20:28:48.180Z,99.90
2018-09-22T20:31:17.566Z,99.90
2018-09-22T20:33:48.321Z,99.90
2018-09-22T20:36:17.829Z,99.90
2018-09-22T20:38:46.763Z,99.90
2018-09-22T20:41:16.812Z,99.90
2018-09-22T20:43:45.282Z,99.90
2018-09-22T20:46:14.678Z,99.90
2018-09-22T20:48:43.177Z,99.90
2018-09-22T20:51:11.581Z,99.90
2018-09-22T20:53:40.075Z,99.90
2018-09-22T20:56:08.660Z,99.90
2018-09-22T20:58:37.050Z,99.90
2018-09-22T21:01:05.730Z,99.90
2018-09-22T21:03:34.205Z,99.90
2018-09-22T21:06:02.686Z,99.90
2018-09-22T21:08:31.276Z,99.90
2018-09-22T21:11:00.301Z,99.90
2018-09-22T21:13:28.845Z,99.90
2018-09-22T21:15:57.396Z,99.90
2018-09-22T21:18:26.515Z,99.90
2018-09-22T21:20:54.957Z,99.90
2018-09-22T21:23:23.473Z,99.90
2018-09-22T21:25:51.837Z,99.90
2018-09-22T21:28:20.397Z,99.90
2018-09-22T21:30:49.011Z,99.90
2018-09-22T21:33:17.537Z,99.90
2018-09-22T21:35:46.093Z,99.90
2018-09-22T21:38:14.649Z,99.90
2018-09-22T21:40:43.037Z,99.90
2018-09-22T21:43:11.595Z,99.90
2018-09-22T21:45:40.157Z,99.90
2018-09-22T21:48:09.306Z,99.90
2018-09-22T21:50:37.714Z,99.90
2018-09-22T21:53:06.285Z,99.90
2018-09-22T21:55:34.661Z,99.90
2018-09-22T21:58:03.249Z,99.90
2018-09-22T22:00:32.189Z,99.90
2018-09-22T22:03:00.696Z,99.90
2018-09-22T22:05:29.130Z,99.90
2018-09-22T22:07:57.951Z,99.90
2018-09-22T22:10:26.398Z,99.90
2018-09-22T22:12:54.777Z,99.90
2018-09-22T22:15:23.232Z,99.90
2018-09-22T22:17:51.855Z,99.90
2018-09-22T22:20:20.250Z,99.90
2018-09-22T22:22:49.597Z,99.90
2018-09-22T22:25:18.125Z,99.90
2018-09-22T22:27:46.559Z,99.90
2018-09-22T22:30:15.012Z,99.90
2018-09-22T22:32:43.523Z,99.90
2018-09-22T22:35:12.014Z,99.90
2018-09-22T22:37:40.521Z,99.90
2018-09-22T22:40:08.917Z,99.90
2018-09-22T22:42:37.301Z,99.90
2018-09-22T22:45:05.864Z,99.90
2018-09-22T22:47:34.290Z,99.90
2018-09-22T22:50:02.671Z,99.90
2018-09-22T22:52:31.159Z,99.90
2018-09-22T22:54:59.619Z,99.90
2018-09-22T22:57:28.060Z,99.90
2018-09-22T22:59:56.509Z,99.90
2018-09-22T23:02:24.849Z,99.90
2018-09-22T23:04:53.502Z,99.90
2018-09-22T23:07:21.938Z,99.90
2018-09-22T23:09:50.549Z,99.90
2018-09-22T23:12:18.961Z,99.90
2018-09-22T23:14:47.452Z,99.90
2018-09-22T23:17:15.818Z,99.90
2018-09-22T23:19:44.337Z,99.90
2018-09-22T23:22:12.817Z,99.90
2018-09-22T23:24:41.222Z,99.90
2018-09-22T23:27:09.589Z,99.90
2018-09-22T23:29:37.998Z,99.90
2018-09-22T23:32:06.713Z,99.90
2018-09-22T23:34:35.050Z,99.90
2018-09-22T23:37:03.505Z,99.90
2018-09-22T23:39:31.951Z,99.90
2018-09-22T23:42:00.356Z,99.90
2018-09-22T23:44:28.774Z,99.90
2018-09-22T23:46:57.161Z,99.90
2018-09-22T23:49:25.531Z,99.90
2018-09-22T23:51:54.020Z,99.90
2018-09-22T23:54:22.410Z,99.90
2018-09-22T23:56:50.824Z,99.90
2018-09-22T23:59:19.245Z,99.90
